sensor_id;sensor_type;location;lat;lon;timestamp;P1;durP1;ratioP1;P2;durP2;ratioP2
28373;SDS011;15616;40.148;-102.718;2022-07-06T00:01:43;9.68;;;4.90;;
28373;SDS011;15616;40.148;-102.718;2022-07-06T00:04:09;8.82;;;4.65;;
28373;SDS011;15616;40.148;-102.718;2022-07-06T00:06:35;8.52;;;4.47;;
28373;SDS011;15616;40.148;-102.718;2022-07-06T00:09:01;9.20;;;4.95;;
28373;SDS011;15616;40.148;-102.718;2022-07-06T00:11:27;8.82;;;5.05;;
28373;SDS011;15616;40.148;-102.718;2022-07-06T00:13:54;6.63;;;4.45;;
28373;SDS011;15616;40.148;-102.718;2022-07-06T00:16:21;8.48;;;4.80;;
28373;SDS011;15616;40.148;-102.718;2022-07-06T00:18:47;9.63;;;4.60;;
28373;SDS011;15616;40.148;-102.718;2022-07-06T00:21:14;9.80;;;4.43;;
28373;SDS011;15616;40.148;-102.718;2022-07-06T00:23:40;8.75;;;4.80;;
28373;SDS011;15616;40.148;-102.718;2022-07-06T00:26:06;8.10;;;4.68;;
28373;SDS011;15616;40.148;-102.718;2022-07-06T00:28:32;8.43;;;4.35;;
28373;SDS011;15616;40.148;-102.718;2022-07-06T00:30:58;8.10;;;4.35;;
28373;SDS011;15616;40.148;-102.718;2022-07-06T00:33:23;7.63;;;4.50;;
28373;SDS011;15616;40.148;-102.718;2022-07-06T00:35:49;7.72;;;4.30;;
28373;SDS011;15616;40.148;-102.718;2022-07-06T00:38:15;6.88;;;4.15;;
28373;SDS011;15616;40.148;-102.718;2022-07-06T00:40:41;7.57;;;4.60;;
28373;SDS011;15616;40.148;-102.718;2022-07-06T00:43:07;8.23;;;4.53;;
28373;SDS011;15616;40.148;-102.718;2022-07-06T00:45:33;8.73;;;4.55;;
28373;SDS011;15616;40.148;-102.718;2022-07-06T00:47:59;8.63;;;4.78;;
28373;SDS011;15616;40.148;-102.718;2022-07-06T00:50:25;8.05;;;4.45;;
28373;SDS011;15616;40.148;-102.718;2022-07-06T00:55:25;8.90;;;4.82;;
28373;SDS011;15616;40.148;-102.718;2022-07-06T00:57:52;9.80;;;4.18;;
28373;SDS011;15616;40.148;-102.718;2022-07-06T01:00:20;8.10;;;4.57;;
28373;SDS011;15616;40.148;-102.718;2022-07-06T01:02:49;8.57;;;4.53;;
28373;SDS011;15616;40.148;-102.718;2022-07-06T01:05:16;9.73;;;4.35;;
28373;SDS011;15616;40.148;-102.718;2022-07-06T01:07:43;9.20;;;4.78;;
28373;SDS011;15616;40.148;-102.718;2022-07-06T01:10:10;6.97;;;4.18;;
28373;SDS011;15616;40.148;-102.718;2022-07-06T01:12:38;9.38;;;4.43;;
28373;SDS011;15616;40.148;-102.718;2022-07-06T01:15:05;8.63;;;4.38;;
28373;SDS011;15616;40.148;-102.718;2022-07-06T01:17:34;7.68;;;4.55;;
28373;SDS011;15616;40.148;-102.718;2022-07-06T01:20:07;8.10;;;4.38;;
28373;SDS011;15616;40.148;-102.718;2022-07-06T01:22:37;9.52;;;3.88;;
28373;SDS011;15616;40.148;-102.718;2022-07-06T01:25:03;8.18;;;4.25;;
28373;SDS011;15616;40.148;-102.718;2022-07-06T01:27:30;8.23;;;4.03;;
28373;SDS011;15616;40.148;-102.718;2022-07-06T01:29:59;7.50;;;4.25;;
28373;SDS011;15616;40.148;-102.718;2022-07-06T01:32:26;11.65;;;4.38;;
28373;SDS011;15616;40.148;-102.718;2022-07-06T01:34:51;9.82;;;4.40;;
28373;SDS011;15616;40.148;-102.718;2022-07-06T01:37:18;8.05;;;4.53;;
28373;SDS011;15616;40.148;-102.718;2022-07-06T01:39:43;10.98;;;4.80;;
28373;SDS011;15616;40.148;-102.718;2022-07-06T01:42:09;7.18;;;4.32;;
28373;SDS011;15616;40.148;-102.718;2022-07-06T01:44:35;6.88;;;4.07;;
28373;SDS011;15616;40.148;-102.718;2022-07-06T01:47:01;9.18;;;4.78;;
28373;SDS011;15616;40.148;-102.718;2022-07-06T01:49:27;6.93;;;4.07;;
28373;SDS011;15616;40.148;-102.718;2022-07-06T01:51:54;9.02;;;4.32;;
28373;SDS011;15616;40.148;-102.718;2022-07-06T01:54:20;9.75;;;4.20;;
28373;SDS011;15616;40.148;-102.718;2022-07-06T01:56:46;7.75;;;3.90;;
28373;SDS011;15616;40.148;-102.718;2022-07-06T01:59:12;7.93;;;4.50;;
28373;SDS011;15616;40.148;-102.718;2022-07-06T02:01:38;8.23;;;4.55;;
28373;SDS011;15616;40.148;-102.718;2022-07-06T02:04:04;9.80;;;4.57;;
28373;SDS011;15616;40.148;-102.718;2022-07-06T02:06:30;7.65;;;4.43;;
28373;SDS011;15616;40.148;-102.718;2022-07-06T02:08:55;8.68;;;4.78;;
28373;SDS011;15616;40.148;-102.718;2022-07-06T02:11:22;9.30;;;4.10;;
28373;SDS011;15616;40.148;-102.718;2022-07-06T02:13:48;7.82;;;4.63;;
28373;SDS011;15616;40.148;-102.718;2022-07-06T02:16:14;6.88;;;3.97;;
28373;SDS011;15616;40.148;-102.718;2022-07-06T02:18:40;7.32;;;4.10;;
28373;SDS011;15616;40.148;-102.718;2022-07-06T02:21:06;8.73;;;4.75;;
28373;SDS011;15616;40.148;-102.718;2022-07-06T02:23:32;10.40;;;4.40;;
28373;SDS011;15616;40.148;-102.718;2022-07-06T02:25:58;7.97;;;4.47;;
28373;SDS011;15616;40.148;-102.718;2022-07-06T02:28:24;9.00;;;4.32;;
28373;SDS011;15616;40.148;-102.718;2022-07-06T02:30:50;7.60;;;4.28;;
28373;SDS011;15616;40.148;-102.718;2022-07-06T02:33:16;8.38;;;4.10;;
28373;SDS011;15616;40.148;-102.718;2022-07-06T02:35:42;8.68;;;4.78;;
28373;SDS011;15616;40.148;-102.718;2022-07-06T02:38:11;7.93;;;4.28;;
28373;SDS011;15616;40.148;-102.718;2022-07-06T02:40:37;9.45;;;4.53;;
28373;SDS011;15616;40.148;-102.718;2022-07-06T02:43:04;8.45;;;4.57;;
28373;SDS011;15616;40.148;-102.718;2022-07-06T02:45:30;10.43;;;4.45;;
28373;SDS011;15616;40.148;-102.718;2022-07-06T02:47:56;10.32;;;4.47;;
28373;SDS011;15616;40.148;-102.718;2022-07-06T02:50:22;8.52;;;4.30;;
28373;SDS011;15616;40.148;-102.718;2022-07-06T02:52:49;9.00;;;4.40;;
28373;SDS011;15616;40.148;-102.718;2022-07-06T02:55:15;7.35;;;4.18;;
28373;SDS011;15616;40.148;-102.718;2022-07-06T02:57:41;7.95;;;4.07;;
28373;SDS011;15616;40.148;-102.718;2022-07-06T03:00:08;6.53;;;3.63;;
28373;SDS011;15616;40.148;-102.718;2022-07-06T03:02:35;10.95;;;4.35;;
28373;SDS011;15616;40.148;-102.718;2022-07-06T03:05:01;9.13;;;4.72;;
28373;SDS011;15616;40.148;-102.718;2022-07-06T03:07:27;7.50;;;4.32;;
28373;SDS011;15616;40.148;-102.718;2022-07-06T03:09:53;9.52;;;4.30;;
28373;SDS011;15616;40.148;-102.718;2022-07-06T03:12:19;7.88;;;3.88;;
28373;SDS011;15616;40.148;-102.718;2022-07-06T03:14:45;9.65;;;4.43;;
28373;SDS011;15616;40.148;-102.718;2022-07-06T03:17:11;7.20;;;4.10;;
28373;SDS011;15616;40.148;-102.718;2022-07-06T03:19:37;8.02;;;3.92;;
28373;SDS011;15616;40.148;-102.718;2022-07-06T03:22:03;8.55;;;4.22;;
28373;SDS011;15616;40.148;-102.718;2022-07-06T03:24:29;7.97;;;4.10;;
28373;SDS011;15616;40.148;-102.718;2022-07-06T03:26:55;8.38;;;4.25;;
28373;SDS011;15616;40.148;-102.718;2022-07-06T03:29:21;9.10;;;4.35;;
28373;SDS011;15616;40.148;-102.718;2022-07-06T03:31:47;8.70;;;4.20;;
28373;SDS011;15616;40.148;-102.718;2022-07-06T03:34:13;10.00;;;4.18;;
28373;SDS011;15616;40.148;-102.718;2022-07-06T03:36:39;8.63;;;4.15;;
28373;SDS011;15616;40.148;-102.718;2022-07-06T03:39:05;7.45;;;4.13;;
28373;SDS011;15616;40.148;-102.718;2022-07-06T03:41:31;7.28;;;3.83;;
28373;SDS011;15616;40.148;-102.718;2022-07-06T03:43:58;6.55;;;3.88;;
28373;SDS011;15616;40.148;-102.718;2022-07-06T03:46:24;8.10;;;4.13;;
28373;SDS011;15616;40.148;-102.718;2022-07-06T03:48:50;7.88;;;4.20;;
28373;SDS011;15616;40.148;-102.718;2022-07-06T03:51:16;7.43;;;3.88;;
28373;SDS011;15616;40.148;-102.718;2022-07-06T03:53:42;8.18;;;4.10;;
28373;SDS011;15616;40.148;-102.718;2022-07-06T03:56:07;11.15;;;3.90;;
28373;SDS011;15616;40.148;-102.718;2022-07-06T03:58:52;8.73;;;4.18;;
28373;SDS011;15616;40.148;-102.718;2022-07-06T04:01:18;7.15;;;4.13;;
28373;SDS011;15616;40.148;-102.718;2022-07-06T04:03:44;7.70;;;4.00;;
28373;SDS011;15616;40.148;-102.718;2022-07-06T04:06:10;7.88;;;4.13;;
28373;SDS011;15616;40.148;-102.718;2022-07-06T04:08:36;7.38;;;3.60;;
28373;SDS011;15616;40.148;-102.718;2022-07-06T04:11:02;7.25;;;4.15;;
28373;SDS011;15616;40.148;-102.718;2022-07-06T04:13:28;8.40;;;4.18;;
28373;SDS011;15616;40.148;-102.718;2022-07-06T04:15:54;7.45;;;3.90;;
28373;SDS011;15616;40.148;-102.718;2022-07-06T04:18:20;7.38;;;4.10;;
28373;SDS011;15616;40.148;-102.718;2022-07-06T04:20:46;8.85;;;4.40;;
28373;SDS011;15616;40.148;-102.718;2022-07-06T04:23:12;7.57;;;3.40;;
28373;SDS011;15616;40.148;-102.718;2022-07-06T04:25:38;7.60;;;4.10;;
28373;SDS011;15616;40.148;-102.718;2022-07-06T04:28:04;6.47;;;3.83;;
28373;SDS011;15616;40.148;-102.718;2022-07-06T04:30:30;8.40;;;3.97;;
28373;SDS011;15616;40.148;-102.718;2022-07-06T04:32:56;8.07;;;4.00;;
28373;SDS011;15616;40.148;-102.718;2022-07-06T04:35:22;8.43;;;4.05;;
28373;SDS011;15616;40.148;-102.718;2022-07-06T04:37:48;7.80;;;3.90;;
28373;SDS011;15616;40.148;-102.718;2022-07-06T04:40:14;10.60;;;3.90;;
28373;SDS011;15616;40.148;-102.718;2022-07-06T04:42:40;7.05;;;3.95;;
28373;SDS011;15616;40.148;-102.718;2022-07-06T04:45:07;6.50;;;3.70;;
28373;SDS011;15616;40.148;-102.718;2022-07-06T04:47:34;6.82;;;3.85;;
28373;SDS011;15616;40.148;-102.718;2022-07-06T04:50:01;7.78;;;3.75;;
28373;SDS011;15616;40.148;-102.718;2022-07-06T04:52:27;7.95;;;3.90;;
28373;SDS011;15616;40.148;-102.718;2022-07-06T04:54:56;8.02;;;3.50;;
28373;SDS011;15616;40.148;-102.718;2022-07-06T04:57:22;6.47;;;3.50;;
28373;SDS011;15616;40.148;-102.718;2022-07-06T04:59:51;7.70;;;3.67;;
28373;SDS011;15616;40.148;-102.718;2022-07-06T05:02:17;7.00;;;3.40;;
28373;SDS011;15616;40.148;-102.718;2022-07-06T05:04:43;6.10;;;3.30;;
28373;SDS011;15616;40.148;-102.718;2022-07-06T05:07:09;5.30;;;3.38;;
28373;SDS011;15616;40.148;-102.718;2022-07-06T05:09:35;7.32;;;3.20;;
28373;SDS011;15616;40.148;-102.718;2022-07-06T05:12:01;10.63;;;3.95;;
28373;SDS011;15616;40.148;-102.718;2022-07-06T05:14:27;10.32;;;3.60;;
28373;SDS011;15616;40.148;-102.718;2022-07-06T05:16:53;12.18;;;3.35;;
28373;SDS011;15616;40.148;-102.718;2022-07-06T05:19:19;7.03;;;3.22;;
28373;SDS011;15616;40.148;-102.718;2022-07-06T05:21:45;7.05;;;3.40;;
28373;SDS011;15616;40.148;-102.718;2022-07-06T05:24:11;7.78;;;3.38;;
28373;SDS011;15616;40.148;-102.718;2022-07-06T05:26:37;9.27;;;3.45;;
28373;SDS011;15616;40.148;-102.718;2022-07-06T05:29:03;6.97;;;3.50;;
28373;SDS011;15616;40.148;-102.718;2022-07-06T05:31:29;10.65;;;4.22;;
28373;SDS011;15616;40.148;-102.718;2022-07-06T05:33:55;12.52;;;3.28;;
28373;SDS011;15616;40.148;-102.718;2022-07-06T05:36:20;8.93;;;3.70;;
28373;SDS011;15616;40.148;-102.718;2022-07-06T05:38:46;13.52;;;3.90;;
28373;SDS011;15616;40.148;-102.718;2022-07-06T05:41:12;7.28;;;3.60;;
28373;SDS011;15616;40.148;-102.718;2022-07-06T05:43:38;10.55;;;3.65;;
28373;SDS011;15616;40.148;-102.718;2022-07-06T05:46:04;11.55;;;3.67;;
28373;SDS011;15616;40.148;-102.718;2022-07-06T05:48:31;8.57;;;3.38;;
28373;SDS011;15616;40.148;-102.718;2022-07-06T05:51:15;14.95;;;4.15;;
28373;SDS011;15616;40.148;-102.718;2022-07-06T05:53:41;9.07;;;3.40;;
28373;SDS011;15616;40.148;-102.718;2022-07-06T05:56:07;8.27;;;3.20;;
28373;SDS011;15616;40.148;-102.718;2022-07-06T05:58:34;9.38;;;3.70;;
28373;SDS011;15616;40.148;-102.718;2022-07-06T06:00:59;10.32;;;2.95;;
28373;SDS011;15616;40.148;-102.718;2022-07-06T06:03:25;8.77;;;3.55;;
28373;SDS011;15616;40.148;-102.718;2022-07-06T06:05:51;13.27;;;3.70;;
28373;SDS011;15616;40.148;-102.718;2022-07-06T06:08:17;14.60;;;3.67;;
28373;SDS011;15616;40.148;-102.718;2022-07-06T06:10:43;9.95;;;3.78;;
28373;SDS011;15616;40.148;-102.718;2022-07-06T06:13:10;9.60;;;3.58;;
28373;SDS011;15616;40.148;-102.718;2022-07-06T06:15:36;29.70;;;4.20;;
28373;SDS011;15616;40.148;-102.718;2022-07-06T06:18:02;18.23;;;3.58;;
28373;SDS011;15616;40.148;-102.718;2022-07-06T06:20:29;12.93;;;3.67;;
28373;SDS011;15616;40.148;-102.718;2022-07-06T06:22:55;33.30;;;4.40;;
28373;SDS011;15616;40.148;-102.718;2022-07-06T06:27:56;19.77;;;3.88;;
28373;SDS011;15616;40.148;-102.718;2022-07-06T06:30:22;19.13;;;3.72;;
28373;SDS011;15616;40.148;-102.718;2022-07-06T06:32:48;20.73;;;3.50;;
28373;SDS011;15616;40.148;-102.718;2022-07-06T06:35:15;23.00;;;3.90;;
28373;SDS011;15616;40.148;-102.718;2022-07-06T06:37:42;24.27;;;4.10;;
28373;SDS011;15616;40.148;-102.718;2022-07-06T06:40:08;30.05;;;4.53;;
28373;SDS011;15616;40.148;-102.718;2022-07-06T06:42:38;36.60;;;3.67;;
28373;SDS011;15616;40.148;-102.718;2022-07-06T06:45:04;18.83;;;3.63;;
28373;SDS011;15616;40.148;-102.718;2022-07-06T06:47:30;19.67;;;3.65;;
28373;SDS011;15616;40.148;-102.718;2022-07-06T06:49:56;21.08;;;4.18;;
28373;SDS011;15616;40.148;-102.718;2022-07-06T06:52:22;17.48;;;4.00;;
28373;SDS011;15616;40.148;-102.718;2022-07-06T06:54:48;24.08;;;4.35;;
28373;SDS011;15616;40.148;-102.718;2022-07-06T06:57:14;24.48;;;4.55;;
28373;SDS011;15616;40.148;-102.718;2022-07-06T06:59:40;11.45;;;3.20;;
28373;SDS011;15616;40.148;-102.718;2022-07-06T07:02:06;12.45;;;3.90;;
28373;SDS011;15616;40.148;-102.718;2022-07-06T07:04:32;21.10;;;4.32;;
28373;SDS011;15616;40.148;-102.718;2022-07-06T07:06:58;14.45;;;4.07;;
28373;SDS011;15616;40.148;-102.718;2022-07-06T07:09:24;21.08;;;3.97;;
28373;SDS011;15616;40.148;-102.718;2022-07-06T07:11:50;17.55;;;3.95;;
28373;SDS011;15616;40.148;-102.718;2022-07-06T07:14:17;16.88;;;4.07;;
28373;SDS011;15616;40.148;-102.718;2022-07-06T07:16:43;21.50;;;3.63;;
28373;SDS011;15616;40.148;-102.718;2022-07-06T07:19:09;16.60;;;4.35;;
28373;SDS011;15616;40.148;-102.718;2022-07-06T07:21:35;13.15;;;4.00;;
28373;SDS011;15616;40.148;-102.718;2022-07-06T07:24:01;12.85;;;3.63;;
28373;SDS011;15616;40.148;-102.718;2022-07-06T07:26:26;18.77;;;4.13;;
28373;SDS011;15616;40.148;-102.718;2022-07-06T07:28:52;22.95;;;4.53;;
28373;SDS011;15616;40.148;-102.718;2022-07-06T07:31:19;18.63;;;3.72;;
28373;SDS011;15616;40.148;-102.718;2022-07-06T07:33:44;13.30;;;4.35;;
28373;SDS011;15616;40.148;-102.718;2022-07-06T07:36:10;11.82;;;3.90;;
28373;SDS011;15616;40.148;-102.718;2022-07-06T07:38:36;13.55;;;3.50;;
28373;SDS011;15616;40.148;-102.718;2022-07-06T07:41:02;20.88;;;4.47;;
28373;SDS011;15616;40.148;-102.718;2022-07-06T07:43:28;11.32;;;3.90;;
28373;SDS011;15616;40.148;-102.718;2022-07-06T07:45:54;13.32;;;3.63;;
28373;SDS011;15616;40.148;-102.718;2022-07-06T07:48:20;10.77;;;3.78;;
28373;SDS011;15616;40.148;-102.718;2022-07-06T07:50:46;19.60;;;3.75;;
28373;SDS011;15616;40.148;-102.718;2022-07-06T07:53:12;10.18;;;3.50;;
28373;SDS011;15616;40.148;-102.718;2022-07-06T07:55:38;22.70;;;3.90;;
28373;SDS011;15616;40.148;-102.718;2022-07-06T07:58:04;12.27;;;3.60;;
28373;SDS011;15616;40.148;-102.718;2022-07-06T08:00:31;17.65;;;3.45;;
28373;SDS011;15616;40.148;-102.718;2022-07-06T08:02:57;19.20;;;4.15;;
28373;SDS011;15616;40.148;-102.718;2022-07-06T08:05:22;15.95;;;3.70;;
28373;SDS011;15616;40.148;-102.718;2022-07-06T08:07:48;12.52;;;4.25;;
28373;SDS011;15616;40.148;-102.718;2022-07-06T08:10:14;21.40;;;4.15;;
28373;SDS011;15616;40.148;-102.718;2022-07-06T08:12:40;15.82;;;3.72;;
28373;SDS011;15616;40.148;-102.718;2022-07-06T08:15:06;17.48;;;4.18;;
28373;SDS011;15616;40.148;-102.718;2022-07-06T08:17:32;20.05;;;3.95;;
28373;SDS011;15616;40.148;-102.718;2022-07-06T08:19:58;29.08;;;4.40;;
28373;SDS011;15616;40.148;-102.718;2022-07-06T08:22:24;13.18;;;3.60;;
28373;SDS011;15616;40.148;-102.718;2022-07-06T08:24:50;21.92;;;3.97;;
28373;SDS011;15616;40.148;-102.718;2022-07-06T08:27:16;21.05;;;3.70;;
28373;SDS011;15616;40.148;-102.718;2022-07-06T08:29:42;15.43;;;3.30;;
28373;SDS011;15616;40.148;-102.718;2022-07-06T08:32:08;26.55;;;3.50;;
28373;SDS011;15616;40.148;-102.718;2022-07-06T08:34:34;18.45;;;3.03;;
28373;SDS011;15616;40.148;-102.718;2022-07-06T08:37:00;13.32;;;2.90;;
28373;SDS011;15616;40.148;-102.718;2022-07-06T08:39:26;14.43;;;3.28;;
28373;SDS011;15616;40.148;-102.718;2022-07-06T08:41:52;15.35;;;3.03;;
28373;SDS011;15616;40.148;-102.718;2022-07-06T08:44:21;19.85;;;3.55;;
28373;SDS011;15616;40.148;-102.718;2022-07-06T08:46:50;13.65;;;3.63;;
28373;SDS011;15616;40.148;-102.718;2022-07-06T08:49:19;17.95;;;4.38;;
28373;SDS011;15616;40.148;-102.718;2022-07-06T08:51:45;21.02;;;3.60;;
28373;SDS011;15616;40.148;-102.718;2022-07-06T08:54:12;17.02;;;3.80;;
28373;SDS011;15616;40.148;-102.718;2022-07-06T08:56:39;19.33;;;3.55;;
28373;SDS011;15616;40.148;-102.718;2022-07-06T08:59:06;15.50;;;3.58;;
28373;SDS011;15616;40.148;-102.718;2022-07-06T09:01:35;18.88;;;3.55;;
28373;SDS011;15616;40.148;-102.718;2022-07-06T09:04:02;13.20;;;3.38;;
28373;SDS011;15616;40.148;-102.718;2022-07-06T09:06:30;18.20;;;3.83;;
28373;SDS011;15616;40.148;-102.718;2022-07-06T09:08:56;26.10;;;4.15;;
28373;SDS011;15616;40.148;-102.718;2022-07-06T09:11:23;22.10;;;3.70;;
28373;SDS011;15616;40.148;-102.718;2022-07-06T09:13:50;15.55;;;3.75;;
28373;SDS011;15616;40.148;-102.718;2022-07-06T09:16:17;19.10;;;4.55;;
28373;SDS011;15616;40.148;-102.718;2022-07-06T09:18:50;17.42;;;4.15;;
28373;SDS011;15616;40.148;-102.718;2022-07-06T09:21:28;19.40;;;3.90;;
28373;SDS011;15616;40.148;-102.718;2022-07-06T09:23:57;20.92;;;3.90;;
28373;SDS011;15616;40.148;-102.718;2022-07-06T09:26:25;25.15;;;3.70;;
28373;SDS011;15616;40.148;-102.718;2022-07-06T09:28:51;19.80;;;3.47;;
28373;SDS011;15616;40.148;-102.718;2022-07-06T09:31:19;44.63;;;5.30;;
28373;SDS011;15616;40.148;-102.718;2022-07-06T09:39:19;14.00;;;3.70;;
28373;SDS011;15616;40.148;-102.718;2022-07-06T09:41:55;16.50;;;4.35;;
28373;SDS011;15616;40.148;-102.718;2022-07-06T09:44:26;12.02;;;3.58;;
28373;SDS011;15616;40.148;-102.718;2022-07-06T09:47:03;16.55;;;4.20;;
28373;SDS011;15616;40.148;-102.718;2022-07-06T09:49:35;17.98;;;3.80;;
28373;SDS011;15616;40.148;-102.718;2022-07-06T09:52:06;16.33;;;3.95;;
28373;SDS011;15616;40.148;-102.718;2022-07-06T09:54:34;18.90;;;3.60;;
28373;SDS011;15616;40.148;-102.718;2022-07-06T09:57:01;11.82;;;3.70;;
28373;SDS011;15616;40.148;-102.718;2022-07-06T09:59:29;14.15;;;3.20;;
28373;SDS011;15616;40.148;-102.718;2022-07-06T10:01:59;14.25;;;3.60;;
28373;SDS011;15616;40.148;-102.718;2022-07-06T10:04:27;21.10;;;3.88;;
28373;SDS011;15616;40.148;-102.718;2022-07-06T10:06:55;12.73;;;3.55;;
28373;SDS011;15616;40.148;-102.718;2022-07-06T10:09:22;22.90;;;4.00;;
28373;SDS011;15616;40.148;-102.718;2022-07-06T10:14:18;14.65;;;3.47;;
28373;SDS011;15616;40.148;-102.718;2022-07-06T10:16:48;16.70;;;3.20;;
28373;SDS011;15616;40.148;-102.718;2022-07-06T10:19:15;15.80;;;3.70;;
28373;SDS011;15616;40.148;-102.718;2022-07-06T10:21:42;15.88;;;3.53;;
28373;SDS011;15616;40.148;-102.718;2022-07-06T10:24:09;10.00;;;3.42;;
28373;SDS011;15616;40.148;-102.718;2022-07-06T10:26:36;13.20;;;4.00;;
28373;SDS011;15616;40.148;-102.718;2022-07-06T10:29:03;13.32;;;3.85;;
28373;SDS011;15616;40.148;-102.718;2022-07-06T10:31:30;8.68;;;3.60;;
28373;SDS011;15616;40.148;-102.718;2022-07-06T10:33:59;23.27;;;3.90;;
28373;SDS011;15616;40.148;-102.718;2022-07-06T10:36:27;15.75;;;3.42;;
28373;SDS011;15616;40.148;-102.718;2022-07-06T10:38:54;13.70;;;3.72;;
28373;SDS011;15616;40.148;-102.718;2022-07-06T10:41:30;9.38;;;3.40;;
28373;SDS011;15616;40.148;-102.718;2022-07-06T10:43:57;14.65;;;4.07;;
28373;SDS011;15616;40.148;-102.718;2022-07-06T10:46:40;13.23;;;3.65;;
28373;SDS011;15616;40.148;-102.718;2022-07-06T10:49:14;12.20;;;3.78;;
28373;SDS011;15616;40.148;-102.718;2022-07-06T10:51:41;13.27;;;3.30;;
28373;SDS011;15616;40.148;-102.718;2022-07-06T10:54:07;22.08;;;3.88;;
28373;SDS011;15616;40.148;-102.718;2022-07-06T10:56:42;13.73;;;3.30;;
28373;SDS011;15616;40.148;-102.718;2022-07-06T10:59:18;16.83;;;3.65;;
28373;SDS011;15616;40.148;-102.718;2022-07-06T11:04:36;15.32;;;3.67;;
28373;SDS011;15616;40.148;-102.718;2022-07-06T11:07:07;11.18;;;3.45;;
28373;SDS011;15616;40.148;-102.718;2022-07-06T11:09:35;14.93;;;3.80;;
28373;SDS011;15616;40.148;-102.718;2022-07-06T11:12:12;20.52;;;3.85;;
28373;SDS011;15616;40.148;-102.718;2022-07-06T11:14:41;9.70;;;3.45;;
28373;SDS011;15616;40.148;-102.718;2022-07-06T11:17:09;16.13;;;4.80;;
28373;SDS011;15616;40.148;-102.718;2022-07-06T11:19:37;17.52;;;4.50;;
28373;SDS011;15616;40.148;-102.718;2022-07-06T11:22:07;29.55;;;4.55;;
28373;SDS011;15616;40.148;-102.718;2022-07-06T11:24:36;24.98;;;4.45;;
28373;SDS011;15616;40.148;-102.718;2022-07-06T11:27:06;16.73;;;4.32;;
28373;SDS011;15616;40.148;-102.718;2022-07-06T11:29:33;22.35;;;4.50;;
28373;SDS011;15616;40.148;-102.718;2022-07-06T11:32:04;21.67;;;3.72;;
28373;SDS011;15616;40.148;-102.718;2022-07-06T11:34:35;17.23;;;4.20;;
28373;SDS011;15616;40.148;-102.718;2022-07-06T11:39:37;22.20;;;4.13;;
28373;SDS011;15616;40.148;-102.718;2022-07-06T11:42:08;20.55;;;4.10;;
28373;SDS011;15616;40.148;-102.718;2022-07-06T11:44:35;14.98;;;3.70;;
28373;SDS011;15616;40.148;-102.718;2022-07-06T11:47:02;16.80;;;3.70;;
28373;SDS011;15616;40.148;-102.718;2022-07-06T11:49:30;24.77;;;4.22;;
28373;SDS011;15616;40.148;-102.718;2022-07-06T11:51:57;18.75;;;4.07;;
28373;SDS011;15616;40.148;-102.718;2022-07-06T11:54:23;18.73;;;3.95;;
28373;SDS011;15616;40.148;-102.718;2022-07-06T11:56:57;15.35;;;4.43;;
28373;SDS011;15616;40.148;-102.718;2022-07-06T12:02:02;13.75;;;3.92;;
28373;SDS011;15616;40.148;-102.718;2022-07-06T12:04:29;13.18;;;3.88;;
28373;SDS011;15616;40.148;-102.718;2022-07-06T12:07:00;16.90;;;4.07;;
28373;SDS011;15616;40.148;-102.718;2022-07-06T12:09:29;18.35;;;4.10;;
28373;SDS011;15616;40.148;-102.718;2022-07-06T12:15:26;9.68;;;3.72;;
28373;SDS011;15616;40.148;-102.718;2022-07-06T12:17:52;17.90;;;4.13;;
28373;SDS011;15616;40.148;-102.718;2022-07-06T12:20:18;18.95;;;3.50;;
28373;SDS011;15616;40.148;-102.718;2022-07-06T12:22:44;12.70;;;3.78;;
28373;SDS011;15616;40.148;-102.718;2022-07-06T12:25:10;21.80;;;4.05;;
28373;SDS011;15616;40.148;-102.718;2022-07-06T12:27:36;9.02;;;3.38;;
28373;SDS011;15616;40.148;-102.718;2022-07-06T12:30:08;10.45;;;3.58;;
28373;SDS011;15616;40.148;-102.718;2022-07-06T12:32:36;14.10;;;3.90;;
28373;SDS011;15616;40.148;-102.718;2022-07-06T12:35:05;13.93;;;3.65;;
28373;SDS011;15616;40.148;-102.718;2022-07-06T12:37:33;23.30;;;4.15;;
28373;SDS011;15616;40.148;-102.718;2022-07-06T12:39:59;18.65;;;3.90;;
28373;SDS011;15616;40.148;-102.718;2022-07-06T12:42:25;14.55;;;3.45;;
28373;SDS011;15616;40.148;-102.718;2022-07-06T12:44:53;28.08;;;4.03;;
28373;SDS011;15616;40.148;-102.718;2022-07-06T12:47:19;13.10;;;3.70;;
28373;SDS011;15616;40.148;-102.718;2022-07-06T12:49:49;11.45;;;4.20;;
28373;SDS011;15616;40.148;-102.718;2022-07-06T12:52:32;16.25;;;4.50;;
28373;SDS011;15616;40.148;-102.718;2022-07-06T12:54:59;19.85;;;4.18;;
28373;SDS011;15616;40.148;-102.718;2022-07-06T12:57:26;10.77;;;3.88;;
28373;SDS011;15616;40.148;-102.718;2022-07-06T13:02:20;16.83;;;4.90;;
28373;SDS011;15616;40.148;-102.718;2022-07-06T13:04:56;26.63;;;5.10;;
28373;SDS011;15616;40.148;-102.718;2022-07-06T13:07:23;18.70;;;4.07;;
28373;SDS011;15616;40.148;-102.718;2022-07-06T13:09:50;20.90;;;4.22;;
28373;SDS011;15616;40.148;-102.718;2022-07-06T13:12:17;12.85;;;4.15;;
28373;SDS011;15616;40.148;-102.718;2022-07-06T13:14:43;15.13;;;3.72;;
28373;SDS011;15616;40.148;-102.718;2022-07-06T13:17:09;21.70;;;4.57;;
28373;SDS011;15616;40.148;-102.718;2022-07-06T13:19:35;15.70;;;4.13;;
28373;SDS011;15616;40.148;-102.718;2022-07-06T13:22:01;22.77;;;4.03;;
28373;SDS011;15616;40.148;-102.718;2022-07-06T13:24:27;16.52;;;3.78;;
28373;SDS011;15616;40.148;-102.718;2022-07-06T13:26:53;17.60;;;3.88;;
28373;SDS011;15616;40.148;-102.718;2022-07-06T13:29:20;21.85;;;4.38;;
28373;SDS011;15616;40.148;-102.718;2022-07-06T13:31:46;25.65;;;4.05;;
28373;SDS011;15616;40.148;-102.718;2022-07-06T13:34:12;25.70;;;4.22;;
28373;SDS011;15616;40.148;-102.718;2022-07-06T13:36:41;20.35;;;4.18;;
28373;SDS011;15616;40.148;-102.718;2022-07-06T13:39:07;12.07;;;3.50;;
28373;SDS011;15616;40.148;-102.718;2022-07-06T13:41:34;17.92;;;4.05;;
28373;SDS011;15616;40.148;-102.718;2022-07-06T13:44:01;20.52;;;4.38;;
28373;SDS011;15616;40.148;-102.718;2022-07-06T13:46:28;25.05;;;3.90;;
28373;SDS011;15616;40.148;-102.718;2022-07-06T13:48:55;15.57;;;4.22;;
28373;SDS011;15616;40.148;-102.718;2022-07-06T13:51:22;19.42;;;3.78;;
28373;SDS011;15616;40.148;-102.718;2022-07-06T13:53:50;15.90;;;3.30;;
28373;SDS011;15616;40.148;-102.718;2022-07-06T13:56:16;27.00;;;4.05;;
28373;SDS011;15616;40.148;-102.718;2022-07-06T13:58:42;22.77;;;4.18;;
28373;SDS011;15616;40.148;-102.718;2022-07-06T14:01:09;22.35;;;4.45;;
28373;SDS011;15616;40.148;-102.718;2022-07-06T14:03:36;21.08;;;4.30;;
28373;SDS011;15616;40.148;-102.718;2022-07-06T14:06:03;8.75;;;3.55;;
28373;SDS011;15616;40.148;-102.718;2022-07-06T14:08:33;14.32;;;3.92;;
28373;SDS011;15616;40.148;-102.718;2022-07-06T14:11:00;12.40;;;3.88;;
28373;SDS011;15616;40.148;-102.718;2022-07-06T14:13:27;16.05;;;3.35;;
28373;SDS011;15616;40.148;-102.718;2022-07-06T14:15:53;25.25;;;4.35;;
28373;SDS011;15616;40.148;-102.718;2022-07-06T14:18:19;14.18;;;3.50;;
28373;SDS011;15616;40.148;-102.718;2022-07-06T14:20:47;25.55;;;4.45;;
28373;SDS011;15616;40.148;-102.718;2022-07-06T14:23:14;14.50;;;3.70;;
28373;SDS011;15616;40.148;-102.718;2022-07-06T14:25:41;18.83;;;4.45;;
28373;SDS011;15616;40.148;-102.718;2022-07-06T14:28:08;14.57;;;3.80;;